createdAt,value
2023-05-19T00:01:52.653Z,9.41
2023-05-19T00:04:40.740Z,9.43
2023-05-19T00:07:18.837Z,9.46
2023-05-19T00:09:57.708Z,9.47
2023-05-19T00:12:38.881Z,9.50
2023-05-19T00:15:33.013Z,9.52
2023-05-19T00:18:26.662Z,9.53
2023-05-19T00:20:59.738Z,9.52
2023-05-19T00:23:32.394Z,9.52
2023-05-19T00:26:05.127Z,9.51
2023-05-19T00:28:38.316Z,9.51
2023-05-19T00:31:13.954Z,9.52
2023-05-19T00:33:49.795Z,9.54
2023-05-19T00:36:22.501Z,9.56
2023-05-19T00:38:57.440Z,9.57
2023-05-19T00:41:36.065Z,9.58
2023-05-19T00:44:09.620Z,9.59
2023-05-19T00:46:44.805Z,9.57
2023-05-19T00:49:20.632Z,9.56
2023-05-19T00:51:55.182Z,9.56
2023-05-19T00:54:31.616Z,9.54
2023-05-19T00:57:07.673Z,9.54
2023-05-19T00:59:40.696Z,9.53
2023-05-19T01:02:16.287Z,9.53
2023-05-19T01:04:53.724Z,9.51
2023-05-19T01:07:29.220Z,9.50
2023-05-19T01:10:05.681Z,9.49
2023-05-19T01:12:58.386Z,9.50
2023-05-19T01:15:35.498Z,9.49
2023-05-19T01:18:26.110Z,9.49
2023-05-19T01:21:10.966Z,9.48
2023-05-19T01:23:57.231Z,9.46
2023-05-19T01:26:56.510Z,9.45
2023-05-19T01:29:44.250Z,9.44
2023-05-19T01:32:22.348Z,9.43
2023-05-19T01:34:56.800Z,9.41
2023-05-19T01:37:33.371Z,9.41
2023-05-19T01:40:16.715Z,9.39
2023-05-19T01:42:55.541Z,9.40
2023-05-19T01:45:34.178Z,9.39
2023-05-19T01:48:10.880Z,9.39
2023-05-19T01:50:57.347Z,9.38
2023-05-19T01:53:32.648Z,9.38
2023-05-19T01:56:06.679Z,9.39
2023-05-19T01:58:54.273Z,9.38
2023-05-19T02:01:37.279Z,9.38
2023-05-19T02:04:28.767Z,9.37
2023-05-19T02:07:03.060Z,9.37
2023-05-19T02:09:50.491Z,9.37
2023-05-19T02:12:34.333Z,9.36
2023-05-19T02:15:15.992Z,9.36
2023-05-19T02:17:54.788Z,9.36
2023-05-19T02:20:30.482Z,9.37
2023-05-19T02:23:06.897Z,9.38
2023-05-19T02:25:44.704Z,9.40
2023-05-19T02:28:20.887Z,9.42
2023-05-19T02:31:08.911Z,9.45
2023-05-19T02:33:44.387Z,9.47
2023-05-19T02:36:16.945Z,9.50
2023-05-19T02:39:01.148Z,9.50
2023-05-19T02:41:37.066Z,9.51
2023-05-19T02:44:13.068Z,9.50
2023-05-19T02:47:06.145Z,9.50
2023-05-19T02:49:48.828Z,9.51
2023-05-19T02:52:21.510Z,9.52
2023-05-19T02:54:56.867Z,9.53
2023-05-19T02:57:38.626Z,9.55
2023-05-19T03:00:13.277Z,9.57
2023-05-19T03:02:46.161Z,9.59
2023-05-19T03:05:23.310Z,9.60
2023-05-19T03:07:59.378Z,9.61
2023-05-19T03:10:43.175Z,9.62
2023-05-19T03:13:20.483Z,9.62
2023-05-19T03:15:57.948Z,9.62
2023-05-19T03:18:35.633Z,9.62
2023-05-19T03:21:08.719Z,9.62
2023-05-19T03:23:44.367Z,9.63
2023-05-19T03:26:19.771Z,9.64
2023-05-19T03:28:55.254Z,9.65
2023-05-19T03:31:48.168Z,9.64
2023-05-19T03:34:23.998Z,9.64
2023-05-19T03:36:59.339Z,9.62
2023-05-19T03:39:35.454Z,9.59
2023-05-19T03:42:11.245Z,9.58
2023-05-19T03:44:46.425Z,9.57
2023-05-19T03:47:22.772Z,9.57
2023-05-19T03:50:25.080Z,9.58
2023-05-19T03:53:02.000Z,9.61
2023-05-19T03:55:48.618Z,9.65
2023-05-19T03:58:21.362Z,9.69
2023-05-19T04:01:05.017Z,9.72
2023-05-19T04:03:40.172Z,9.77
2023-05-19T04:06:15.869Z,9.83
2023-05-19T04:08:50.569Z,9.91
2023-05-19T04:11:26.359Z,9.98
2023-05-19T04:14:01.631Z,10.02
2023-05-19T04:16:37.217Z,10.07
2023-05-19T04:19:10.043Z,10.09
2023-05-19T04:21:47.967Z,10.08
2023-05-19T04:24:20.823Z,10.10
2023-05-19T04:26:56.326Z,10.11
2023-05-19T04:29:32.714Z,10.11
2023-05-19T04:32:25.991Z,10.09
2023-05-19T04:35:03.542Z,10.08
2023-05-19T04:37:40.659Z,10.07
2023-05-19T04:40:34.629Z,10.07
2023-05-19T04:43:19.405Z,10.06
2023-05-19T04:46:06.462Z,10.05
2023-05-19T04:48:42.963Z,10.03
2023-05-19T04:51:18.782Z,10.03
2023-05-19T04:53:51.736Z,10.06
2023-05-19T04:56:27.620Z,10.08
2023-05-19T04:59:03.874Z,10.12
2023-05-19T05:01:40.384Z,10.14
2023-05-19T05:04:17.634Z,10.19
2023-05-19T05:06:53.537Z,10.30
2023-05-19T05:09:26.601Z,10.43
2023-05-19T05:12:07.637Z,10.58
2023-05-19T05:14:51.335Z,10.75
2023-05-19T05:17:33.412Z,10.94
2023-05-19T05:20:08.393Z,11.06
2023-05-19T05:23:02.515Z,11.15
2023-05-19T05:25:37.402Z,11.25
2023-05-19T05:28:10.228Z,11.33
2023-05-19T05:30:43.791Z,11.40
2023-05-19T05:33:17.456Z,11.41
2023-05-19T05:35:51.220Z,11.38
2023-05-19T05:38:25.817Z,11.36
2023-05-19T05:41:00.546Z,11.37
2023-05-19T05:43:33.623Z,11.36
2023-05-19T05:46:08.433Z,11.38
2023-05-19T05:48:43.090Z,11.41
2023-05-19T05:51:18.255Z,11.42
2023-05-19T05:53:55.767Z,11.40
2023-05-19T05:56:35.073Z,11.35
2023-05-19T05:59:12.201Z,11.29
2023-05-19T06:01:45.608Z,11.21
2023-05-19T06:04:18.014Z,11.16
2023-05-19T06:06:52.721Z,11.14
2023-05-19T06:09:27.986Z,11.14
2023-05-19T06:12:02.758Z,11.13
2023-05-19T06:14:39.419Z,11.15
2023-05-19T06:17:22.514Z,11.20
2023-05-19T06:19:59.766Z,11.23
2023-05-19T06:22:36.143Z,11.27
2023-05-19T06:25:14.080Z,11.27
2023-05-19T06:27:50.278Z,11.27
2023-05-19T06:30:26.132Z,11.27
2023-05-19T06:33:19.062Z,11.27
2023-05-19T06:35:51.939Z,11.27
2023-05-19T06:38:28.911Z,11.27
2023-05-19T06:41:04.586Z,11.31
2023-05-19T06:43:41.643Z,11.35
2023-05-19T06:46:19.368Z,11.37
2023-05-19T06:48:54.471Z,11.40
2023-05-19T06:51:28.565Z,11.41
2023-05-19T06:54:03.245Z,11.43
2023-05-19T06:56:38.459Z,11.50
2023-05-19T06:59:13.212Z,11.59
2023-05-19T07:01:45.874Z,11.70
2023-05-19T07:04:22.763Z,11.76
2023-05-19T07:06:55.543Z,11.80
2023-05-19T07:09:38.576Z,11.84
2023-05-19T07:12:31.230Z,11.91
2023-05-19T07:15:23.936Z,11.97
2023-05-19T07:18:07.139Z,12.02
2023-05-19T07:20:41.958Z,12.06
2023-05-19T07:23:21.979Z,12.11
2023-05-19T07:25:59.127Z,12.16
2023-05-19T07:28:43.634Z,12.19
2023-05-19T07:31:17.601Z,12.18
2023-05-19T07:33:53.018Z,12.11
2023-05-19T07:36:27.269Z,12.07
2023-05-19T07:39:11.037Z,12.07
2023-05-19T07:41:55.829Z,12.10
2023-05-19T07:44:48.730Z,12.12
2023-05-19T07:47:32.759Z,12.15
2023-05-19T07:50:10.330Z,12.16
2023-05-19T07:53:05.251Z,12.16
2023-05-19T07:55:48.309Z,12.22
2023-05-19T07:58:41.439Z,12.30
2023-05-19T08:01:34.367Z,12.39
2023-05-19T08:04:27.962Z,12.48
2023-05-19T08:07:20.823Z,12.58
2023-05-19T08:10:03.517Z,12.61
2023-05-19T08:12:59.122Z,12.61
2023-05-19T08:15:52.216Z,12.63
2023-05-19T08:18:46.392Z,12.64
2023-05-19T08:21:39.622Z,12.66
2023-05-19T08:24:36.274Z,12.67
2023-05-19T08:27:29.365Z,12.75
2023-05-19T08:30:23.597Z,12.82
2023-05-19T08:33:07.189Z,12.84
2023-05-19T08:35:40.092Z,12.88
2023-05-19T08:38:23.196Z,12.95
2023-05-19T08:40:58.184Z,13.05
2023-05-19T08:43:50.859Z,13.14
2023-05-19T08:46:43.985Z,13.16
2023-05-19T08:49:44.451Z,13.21
2023-05-19T08:52:49.462Z,13.28
2023-05-19T08:55:43.436Z,13.35
2023-05-19T08:58:39.523Z,13.41
2023-05-19T09:01:28.300Z,13.51
2023-05-19T09:04:22.341Z,13.52
2023-05-19T09:07:18.909Z,13.47
2023-05-19T09:09:52.168Z,13.41
2023-05-19T09:12:47.639Z,13.35
2023-05-19T09:15:42.479Z,13.28
2023-05-19T09:18:35.604Z,13.26
2023-05-19T09:21:19.128Z,13.26
2023-05-19T09:24:13.105Z,13.29
2023-05-19T09:27:06.370Z,13.30
2023-05-19T09:29:42.052Z,13.28
2023-05-19T09:32:36.786Z,13.34
2023-05-19T09:35:29.951Z,13.42
2023-05-19T09:38:23.043Z,13.57
2023-05-19T09:41:17.642Z,13.71
2023-05-19T09:44:13.754Z,13.84
2023-05-19T09:47:07.195Z,13.99
2023-05-19T09:50:00.384Z,14.15
2023-05-19T09:52:53.487Z,14.33
2023-05-19T09:55:47.555Z,14.50
2023-05-19T09:58:43.034Z,14.66
2023-05-19T10:01:37.680Z,14.72
2023-05-19T10:04:31.708Z,14.77
2023-05-19T10:07:26.724Z,14.76
2023-05-19T10:10:21.256Z,14.75
2023-05-19T10:13:15.417Z,14.84
2023-05-19T10:16:10.028Z,14.92
2023-05-19T10:19:03.804Z,15.00
2023-05-19T10:21:57.325Z,15.11
2023-05-19T10:24:50.258Z,15.13
2023-05-19T10:27:35.124Z,15.12
2023-05-19T10:30:38.831Z,15.17
2023-05-19T10:33:38.155Z,15.20
2023-05-19T10:36:40.659Z,15.19
2023-05-19T10:39:37.628Z,15.20
2023-05-19T10:42:34.964Z,15.20
2023-05-19T10:45:32.072Z,15.23
2023-05-19T10:48:24.984Z,15.18
2023-05-19T10:51:19.057Z,15.14
2023-05-19T10:54:16.115Z,15.11
2023-05-19T10:57:10.097Z,15.07
2023-05-19T11:00:11.732Z,15.07
2023-05-19T11:03:17.933Z,15.08
2023-05-19T11:06:29.491Z,15.19
2023-05-19T11:09:37.883Z,15.31
2023-05-19T11:12:44.900Z,15.36
2023-05-19T11:15:39.166Z,15.40
2023-05-19T11:18:41.085Z,15.39
2023-05-19T11:21:47.169Z,15.45
2023-05-19T11:24:41.963Z,15.50
2023-05-19T11:27:32.877Z,15.53
2023-05-19T11:30:26.253Z,15.54
2023-05-19T11:33:09.267Z,15.55
2023-05-19T11:36:02.137Z,15.56
2023-05-19T11:38:55.391Z,15.57
2023-05-19T11:41:43.289Z,15.57
2023-05-19T11:44:38.784Z,15.52
2023-05-19T11:47:23.816Z,15.53
2023-05-19T11:50:07.801Z,15.60
2023-05-19T11:52:51.689Z,15.55
2023-05-19T11:55:25.051Z,15.41
2023-05-19T11:58:10.428Z,15.35
2023-05-19T12:00:52.800Z,15.36
2023-05-19T12:03:46.745Z,15.41
2023-05-19T12:06:23.126Z,15.43
2023-05-19T12:08:57.483Z,15.47
2023-05-19T12:11:41.438Z,15.48
2023-05-19T12:14:16.537Z,15.54
2023-05-19T12:16:49.420Z,15.64
2023-05-19T12:19:24.391Z,15.67
2023-05-19T12:22:08.410Z,15.62
2023-05-19T12:24:44.227Z,15.49
2023-05-19T12:27:39.401Z,15.41
2023-05-19T12:30:15.526Z,15.47
2023-05-19T12:32:52.276Z,15.58
2023-05-19T12:35:38.965Z,15.59
2023-05-19T12:38:22.356Z,15.55
2023-05-19T12:41:15.964Z,15.46
2023-05-19T12:44:18.418Z,15.36
2023-05-19T12:46:58.559Z,15.30
2023-05-19T12:50:04.789Z,15.39
2023-05-19T12:52:59.734Z,15.50
2023-05-19T12:55:56.104Z,15.42
2023-05-19T12:58:41.644Z,15.44
2023-05-19T13:01:25.741Z,15.40
2023-05-19T13:04:06.052Z,15.48
2023-05-19T13:06:39.621Z,15.55
2023-05-19T13:09:17.052Z,15.54
2023-05-19T13:12:09.482Z,15.60
2023-05-19T13:15:00.952Z,15.72
2023-05-19T13:17:46.541Z,15.80
2023-05-19T13:20:41.004Z,15.92
2023-05-19T13:23:35.602Z,16.06
2023-05-19T13:26:16.985Z,16.11
2023-05-19T13:29:02.345Z,16.10
2023-05-19T13:31:55.304Z,16.06
2023-05-19T13:34:48.214Z,16.02
2023-05-19T13:37:31.797Z,15.96
2023-05-19T13:40:15.870Z,15.85
2023-05-19T13:42:53.462Z,15.77
2023-05-19T13:45:30.302Z,15.73
2023-05-19T13:48:08.660Z,15.74
2023-05-19T13:51:02.423Z,15.72
2023-05-19T13:53:43.910Z,15.67
2023-05-19T13:56:37.122Z,15.65
2023-05-19T13:59:29.930Z,15.64
2023-05-19T14:02:22.607Z,15.62
2023-05-19T14:05:15.894Z,15.67
2023-05-19T14:08:01.243Z,15.72
2023-05-19T14:10:57.190Z,15.75
2023-05-19T14:13:33.852Z,15.71
2023-05-19T14:16:23.205Z,15.69
2023-05-19T14:19:07.884Z,15.67
2023-05-19T14:21:54.524Z,15.63
2023-05-19T14:24:29.604Z,15.54
2023-05-19T14:27:02.658Z,15.46
2023-05-19T14:29:38.921Z,15.40
2023-05-19T14:32:31.617Z,15.36
2023-05-19T14:35:24.275Z,15.34
2023-05-19T14:38:10.189Z,15.34
2023-05-19T14:41:03.360Z,15.33
2023-05-19T14:43:55.328Z,15.27
2023-05-19T14:46:42.503Z,15.23
2023-05-19T14:49:15.288Z,15.21
2023-05-19T14:52:02.050Z,15.20
2023-05-19T14:54:41.070Z,15.19
2023-05-19T14:57:13.423Z,15.17
2023-05-19T14:59:46.619Z,15.13
2023-05-19T15:02:18.819Z,15.08
2023-05-19T15:04:51.284Z,15.04
2023-05-19T15:07:24.756Z,14.99
2023-05-19T15:09:57.405Z,14.95
2023-05-19T15:12:30.045Z,14.94
2023-05-19T15:15:02.944Z,14.90
2023-05-19T15:17:35.807Z,14.87
2023-05-19T15:20:10.390Z,14.85
2023-05-19T15:22:43.024Z,14.85
2023-05-19T15:25:15.781Z,14.86
2023-05-19T15:27:48.280Z,14.85
2023-05-19T15:30:21.213Z,14.81
2023-05-19T15:32:53.988Z,14.80
2023-05-19T15:35:26.796Z,14.76
2023-05-19T15:38:19.615Z,14.72
2023-05-19T15:41:13.103Z,14.72
2023-05-19T15:43:46.714Z,14.71
2023-05-19T15:46:21.871Z,14.71
2023-05-19T15:48:55.168Z,14.73
2023-05-19T15:51:32.440Z,14.72
2023-05-19T15:54:05.292Z,14.70
2023-05-19T15:56:41.468Z,14.70
2023-05-19T15:59:17.627Z,14.67
2023-05-19T16:02:07.250Z,14.63
2023-05-19T16:04:42.390Z,14.60
2023-05-19T16:07:20.908Z,14.60
2023-05-19T16:10:05.320Z,14.59
2023-05-19T16:12:41.454Z,14.57
2023-05-19T16:15:34.776Z,14.54
2023-05-19T16:18:10.362Z,14.52
2023-05-19T16:20:45.510Z,14.51
2023-05-19T16:23:21.149Z,14.49
2023-05-19T16:25:57.617Z,14.50
2023-05-19T16:28:30.583Z,14.49
2023-05-19T16:31:12.350Z,14.48
2023-05-19T16:33:48.213Z,14.45
2023-05-19T16:36:27.595Z,14.44
2023-05-19T16:39:10.070Z,14.44
2023-05-19T16:41:53.182Z,14.42
2023-05-19T16:44:36.870Z,14.40
2023-05-19T16:47:29.885Z,14.36
2023-05-19T16:50:11.046Z,14.34
2023-05-19T16:52:46.802Z,14.32
2023-05-19T16:55:20.895Z,14.29
2023-05-19T16:57:57.162Z,14.28
2023-05-19T17:00:30.722Z,14.23
2023-05-19T17:03:09.148Z,14.15
2023-05-19T17:05:51.213Z,14.10
2023-05-19T17:08:34.821Z,14.09
2023-05-19T17:11:09.773Z,14.06
2023-05-19T17:13:52.260Z,14.03
2023-05-19T17:16:37.780Z,13.98
2023-05-19T17:19:14.040Z,13.96
2023-05-19T17:21:46.883Z,13.96
2023-05-19T17:24:19.728Z,13.95
2023-05-19T17:26:52.571Z,13.94
2023-05-19T17:29:27.101Z,13.95
2023-05-19T17:31:59.781Z,13.99
2023-05-19T17:34:32.233Z,14.02
2023-05-19T17:37:05.141Z,14.05
2023-05-19T17:39:39.090Z,14.04
2023-05-19T17:42:11.926Z,13.99
2023-05-19T17:44:44.957Z,13.91
2023-05-19T17:47:17.278Z,13.85
2023-05-19T17:49:50.463Z,13.79
2023-05-19T17:52:26.599Z,13.78
2023-05-19T17:55:00.001Z,13.78
2023-05-19T17:57:34.721Z,13.76
2023-05-19T18:00:10.597Z,13.73
2023-05-19T18:02:44.292Z,13.71
2023-05-19T18:05:18.819Z,13.68
2023-05-19T18:07:51.293Z,13.64
2023-05-19T18:10:27.096Z,13.60
2023-05-19T18:13:00.453Z,13.58
2023-05-19T18:15:33.046Z,13.55
2023-05-19T18:18:07.935Z,13.51
2023-05-19T18:20:44.489Z,13.48
2023-05-19T18:23:17.397Z,13.46
2023-05-19T18:25:53.562Z,13.46
2023-05-19T18:28:26.590Z,13.45
2023-05-19T18:31:06.304Z,13.43
2023-05-19T18:33:40.133Z,13.42
2023-05-19T18:36:13.617Z,13.39
2023-05-19T18:38:58.201Z,13.34
2023-05-19T18:41:32.246Z,13.31
2023-05-19T18:44:06.340Z,13.28
2023-05-19T18:46:39.840Z,13.25
2023-05-19T18:49:25.141Z,13.26
2023-05-19T18:51:58.246Z,13.27
2023-05-19T18:54:32.594Z,13.27
2023-05-19T18:57:05.359Z,13.26
2023-05-19T18:59:38.328Z,13.26
2023-05-19T19:02:11.177Z,13.21
2023-05-19T19:04:45.519Z,13.19
2023-05-19T19:07:18.291Z,13.18
2023-05-19T19:09:50.821Z,13.17
2023-05-19T19:12:25.212Z,13.17
2023-05-19T19:14:57.734Z,13.17
2023-05-19T19:17:30.660Z,13.17
2023-05-19T19:20:03.283Z,13.14
2023-05-19T19:22:38.739Z,13.07
2023-05-19T19:25:12.289Z,13.04
2023-05-19T19:27:45.034Z,13.04
2023-05-19T19:30:17.765Z,13.05
2023-05-19T19:32:50.509Z,13.06
2023-05-19T19:35:24.756Z,13.06
2023-05-19T19:37:58.590Z,13.03
2023-05-19T19:40:32.524Z,13.01
2023-05-19T19:43:05.378Z,12.97
2023-05-19T19:46:04.615Z,12.92
2023-05-19T19:49:00.427Z,12.88
2023-05-19T19:51:53.486Z,12.86
2023-05-19T19:54:46.375Z,12.83
2023-05-19T19:57:34.328Z,12.78
2023-05-19T20:00:19.296Z,12.73
2023-05-19T20:03:13.443Z,12.70
2023-05-19T20:06:07.718Z,12.66
2023-05-19T20:09:00.615Z,12.63
2023-05-19T20:11:45.718Z,12.58
2023-05-19T20:14:31.244Z,12.58
2023-05-19T20:17:24.323Z,12.60
2023-05-19T20:20:12.541Z,12.58
2023-05-19T20:23:05.177Z,12.57
2023-05-19T20:26:10.299Z,12.55
2023-05-19T20:29:04.193Z,12.54
2023-05-19T20:31:57.203Z,12.54
2023-05-19T20:34:43.290Z,12.54
2023-05-19T20:37:36.869Z,12.54
2023-05-19T20:40:23.307Z,12.56
2023-05-19T20:43:16.217Z,12.54
2023-05-19T20:46:09.174Z,12.52
2023-05-19T20:49:02.804Z,12.49
2023-05-19T20:51:55.833Z,12.48
2023-05-19T20:54:49.131Z,12.46
2023-05-19T20:57:41.698Z,12.47
2023-05-19T21:00:34.505Z,12.45
2023-05-19T21:03:11.833Z,12.43
2023-05-19T21:06:04.713Z,12.42
2023-05-19T21:08:57.635Z,12.39
2023-05-19T21:11:53.776Z,12.38
2023-05-19T21:14:39.115Z,12.39
2023-05-19T21:17:32.067Z,12.41
2023-05-19T21:20:16.334Z,12.42
2023-05-19T21:23:10.133Z,12.42
2023-05-19T21:26:01.710Z,12.41
2023-05-19T21:28:56.410Z,12.40
2023-05-19T21:31:42.197Z,12.39
2023-05-19T21:34:27.909Z,12.40
2023-05-19T21:37:11.848Z,12.41
2023-05-19T21:39:57.772Z,12.41
2023-05-19T21:42:52.658Z,12.42
2023-05-19T21:45:45.185Z,12.44
2023-05-19T21:48:38.858Z,12.43
2023-05-19T21:51:31.713Z,12.44
2023-05-19T21:54:25.870Z,12.44
2023-05-19T21:57:18.840Z,12.43
2023-05-19T22:00:06.517Z,12.43
2023-05-19T22:02:59.122Z,12.44
2023-05-19T22:05:56.386Z,12.46
2023-05-19T22:08:50.040Z,12.44
2023-05-19T22:11:44.691Z,12.41
2023-05-19T22:14:37.662Z,12.38
2023-05-19T22:17:30.874Z,12.38
2023-05-19T22:20:17.670Z,12.39
2023-05-19T22:23:11.467Z,12.41
2023-05-19T22:25:58.265Z,12.42
2023-05-19T22:28:33.785Z,12.42
2023-05-19T22:31:08.956Z,12.43
2023-05-19T22:33:41.443Z,12.44
2023-05-19T22:36:16.138Z,12.45
2023-05-19T22:38:49.057Z,12.46
2023-05-19T22:41:23.697Z,12.46
2023-05-19T22:43:57.052Z,12.45
2023-05-19T22:46:29.616Z,12.44
2023-05-19T22:49:23.649Z,12.44
2023-05-19T22:52:10.248Z,12.45
2023-05-19T22:54:42.892Z,12.46
2023-05-19T22:57:35.722Z,12.48
2023-05-19T23:00:28.508Z,12.49
2023-05-19T23:03:20.999Z,12.48
2023-05-19T23:06:12.184Z,12.46
2023-05-19T23:09:05.882Z,12.45
2023-05-19T23:11:58.783Z,12.45
2023-05-19T23:14:51.483Z,12.42
2023-05-19T23:17:29.819Z,12.41
2023-05-19T23:20:22.815Z,12.42
2023-05-19T23:23:15.445Z,12.41
2023-05-19T23:25:58.137Z,12.39
2023-05-19T23:28:49.191Z,12.38
2023-05-19T23:31:42.483Z,12.37
2023-05-19T23:34:28.997Z,12.39
2023-05-19T23:37:08.614Z,12.41
2023-05-19T23:40:01.249Z,12.42
2023-05-19T23:42:54.455Z,12.44
2023-05-19T23:45:30.350Z,12.44
2023-05-19T23:48:11.551Z,12.44
2023-05-19T23:51:04.584Z,12.44
2023-05-19T23:53:50.020Z,12.45
2023-05-19T23:56:41.424Z,12.46
2023-05-19T23:59:31.426Z,12.47
